sensor_id;sensor_type;location;lat;lon;timestamp;P1;durP1;ratioP1;P2;durP2;ratioP2
36241;SDS011;22283;42.748;12.732;2022-09-09T00:02:28;12.88;;;3.65;;
36241;SDS011;22283;42.748;12.732;2022-09-09T00:13:13;8.65;;;3.25;;
36241;SDS011;22283;42.748;12.732;2022-09-09T00:23:40;13.27;;;3.63;;
36241;SDS011;22283;42.748;12.732;2022-09-09T00:29:14;7.80;;;3.47;;
36241;SDS011;22283;42.748;12.732;2022-09-09T00:34:51;10.02;;;3.70;;
36241;SDS011;22283;42.748;12.732;2022-09-09T00:39:54;5.05;;;2.85;;
36241;SDS011;22283;42.748;12.732;2022-09-09T00:55:48;10.27;;;3.70;;
36241;SDS011;22283;42.748;12.732;2022-09-09T01:01:12;10.50;;;3.55;;
36241;SDS011;22283;42.748;12.732;2022-09-09T01:06:15;11.02;;;3.75;;
36241;SDS011;22283;42.748;12.732;2022-09-09T01:16:46;8.77;;;3.22;;
36241;SDS011;22283;42.748;12.732;2022-09-09T01:21:57;11.18;;;3.85;;
36241;SDS011;22283;42.748;12.732;2022-09-09T01:27:10;6.22;;;3.17;;
36241;SDS011;22283;42.748;12.732;2022-09-09T01:37:43;7.75;;;3.30;;
36241;SDS011;22283;42.748;12.732;2022-09-09T01:42:43;5.72;;;3.30;;
36241;SDS011;22283;42.748;12.732;2022-09-09T01:52:55;12.43;;;3.75;;
36241;SDS011;22283;42.748;12.732;2022-09-09T02:03:27;11.20;;;3.85;;
36241;SDS011;22283;42.748;12.732;2022-09-09T02:08:49;11.75;;;4.43;;
36241;SDS011;22283;42.748;12.732;2022-09-09T02:13:53;13.73;;;4.57;;
36241;SDS011;22283;42.748;12.732;2022-09-09T02:19:03;14.57;;;4.05;;
36241;SDS011;22283;42.748;12.732;2022-09-09T02:24:21;9.07;;;3.47;;
36241;SDS011;22283;42.748;12.732;2022-09-09T02:29:39;7.00;;;3.67;;
36241;SDS011;22283;42.748;12.732;2022-09-09T02:34:44;5.80;;;2.70;;
36241;SDS011;22283;42.748;12.732;2022-09-09T02:39:48;6.65;;;3.58;;
36241;SDS011;22283;42.748;12.732;2022-09-09T02:44:52;9.50;;;3.05;;
36241;SDS011;22283;42.748;12.732;2022-09-09T02:55:49;9.73;;;3.20;;
36241;SDS011;22283;42.748;12.732;2022-09-09T03:00:54;6.30;;;2.70;;
36241;SDS011;22283;42.748;12.732;2022-09-09T03:05:59;9.55;;;3.80;;
36241;SDS011;22283;42.748;12.732;2022-09-09T03:11:01;6.55;;;3.45;;
36241;SDS011;22283;42.748;12.732;2022-09-09T03:16:04;7.35;;;3.33;;
36241;SDS011;22283;42.748;12.732;2022-09-09T03:21:10;6.65;;;3.78;;
36241;SDS011;22283;42.748;12.732;2022-09-09T03:26:12;6.07;;;2.75;;
36241;SDS011;22283;42.748;12.732;2022-09-09T03:31:19;12.70;;;4.47;;
36241;SDS011;22283;42.748;12.732;2022-09-09T03:36:20;7.22;;;3.10;;
36241;SDS011;22283;42.748;12.732;2022-09-09T03:46:25;7.70;;;2.35;;
36241;SDS011;22283;42.748;12.732;2022-09-09T03:51:26;4.15;;;2.03;;
36241;SDS011;22283;42.748;12.732;2022-09-09T03:56:27;2.35;;;1.50;;
36241;SDS011;22283;42.748;12.732;2022-09-09T04:01:29;9.75;;;1.65;;
36241;SDS011;22283;42.748;12.732;2022-09-09T04:06:30;4.03;;;1.60;;
36241;SDS011;22283;42.748;12.732;2022-09-09T04:11:31;4.00;;;1.40;;
36241;SDS011;22283;42.748;12.732;2022-09-09T04:16:33;7.72;;;1.70;;
36241;SDS011;22283;42.748;12.732;2022-09-09T04:21:36;4.22;;;1.70;;
36241;SDS011;22283;42.748;12.732;2022-09-09T04:26:38;3.10;;;1.80;;
36241;SDS011;22283;42.748;12.732;2022-09-09T04:31:39;7.32;;;2.08;;
36241;SDS011;22283;42.748;12.732;2022-09-09T04:36:43;3.38;;;1.42;;
36241;SDS011;22283;42.748;12.732;2022-09-09T04:41:43;3.58;;;1.60;;
36241;SDS011;22283;42.748;12.732;2022-09-09T04:46:44;5.25;;;1.10;;
36241;SDS011;22283;42.748;12.732;2022-09-09T04:51:46;3.15;;;1.30;;
36241;SDS011;22283;42.748;12.732;2022-09-09T04:56:50;5.95;;;2.15;;
36241;SDS011;22283;42.748;12.732;2022-09-09T05:01:52;6.28;;;1.50;;
36241;SDS011;22283;42.748;12.732;2022-09-09T05:06:56;7.18;;;1.70;;
36241;SDS011;22283;42.748;12.732;2022-09-09T05:11:57;4.85;;;1.60;;
36241;SDS011;22283;42.748;12.732;2022-09-09T05:17:03;7.80;;;1.50;;
36241;SDS011;22283;42.748;12.732;2022-09-09T05:22:07;5.30;;;1.45;;
36241;SDS011;22283;42.748;12.732;2022-09-09T05:27:15;4.90;;;1.33;;
36241;SDS011;22283;42.748;12.732;2022-09-09T05:32:16;5.20;;;1.40;;
36241;SDS011;22283;42.748;12.732;2022-09-09T05:37:20;3.58;;;1.65;;
36241;SDS011;22283;42.748;12.732;2022-09-09T05:47:21;5.05;;;2.10;;
36241;SDS011;22283;42.748;12.732;2022-09-09T05:52:22;3.13;;;1.70;;
36241;SDS011;22283;42.748;12.732;2022-09-09T05:57:24;7.53;;;1.58;;
36241;SDS011;22283;42.748;12.732;2022-09-09T06:07:26;6.53;;;1.48;;
36241;SDS011;22283;42.748;12.732;2022-09-09T06:12:28;3.78;;;1.60;;
36241;SDS011;22283;42.748;12.732;2022-09-09T06:22:31;19.50;;;2.00;;
36241;SDS011;22283;42.748;12.732;2022-09-09T06:27:31;4.07;;;1.50;;
36241;SDS011;22283;42.748;12.732;2022-09-09T06:32:33;5.43;;;2.30;;
36241;SDS011;22283;42.748;12.732;2022-09-09T06:37:35;11.40;;;2.00;;
36241;SDS011;22283;42.748;12.732;2022-09-09T06:42:37;4.30;;;2.13;;
36241;SDS011;22283;42.748;12.732;2022-09-09T06:47:54;6.72;;;2.15;;
36241;SDS011;22283;42.748;12.732;2022-09-09T06:52:56;5.80;;;2.55;;
36241;SDS011;22283;42.748;12.732;2022-09-09T07:02:58;12.10;;;4.22;;
36241;SDS011;22283;42.748;12.732;2022-09-09T07:13:00;10.07;;;3.43;;
36241;SDS011;22283;42.748;12.732;2022-09-09T07:18:02;6.72;;;3.58;;
36241;SDS011;22283;42.748;12.732;2022-09-09T07:23:03;7.35;;;2.90;;
36241;SDS011;22283;42.748;12.732;2022-09-09T07:28:05;16.80;;;2.92;;
36241;SDS011;22283;42.748;12.732;2022-09-09T07:33:08;10.20;;;2.60;;
36241;SDS011;22283;42.748;12.732;2022-09-09T07:38:13;7.03;;;2.33;;
36241;SDS011;22283;42.748;12.732;2022-09-09T07:43:15;7.38;;;2.25;;
36241;SDS011;22283;42.748;12.732;2022-09-09T07:48:19;7.55;;;2.45;;
36241;SDS011;22283;42.748;12.732;2022-09-09T07:58:23;10.70;;;2.95;;
36241;SDS011;22283;42.748;12.732;2022-09-09T08:08:24;8.02;;;2.10;;
36241;SDS011;22283;42.748;12.732;2022-09-09T08:18:27;12.68;;;3.22;;
36241;SDS011;22283;42.748;12.732;2022-09-09T08:23:29;8.60;;;3.22;;
36241;SDS011;22283;42.748;12.732;2022-09-09T08:28:30;10.25;;;3.00;;
36241;SDS011;22283;42.748;12.732;2022-09-09T08:33:31;4.85;;;2.30;;
36241;SDS011;22283;42.748;12.732;2022-09-09T08:38:33;14.10;;;3.10;;
36241;SDS011;22283;42.748;12.732;2022-09-09T08:48:47;6.30;;;2.67;;
36241;SDS011;22283;42.748;12.732;2022-09-09T08:53:55;14.73;;;3.00;;
36241;SDS011;22283;42.748;12.732;2022-09-09T08:59:03;8.23;;;2.38;;
36241;SDS011;22283;42.748;12.732;2022-09-09T09:14:37;8.80;;;2.67;;
36241;SDS011;22283;42.748;12.732;2022-09-09T09:19:43;20.50;;;2.97;;
36241;SDS011;22283;42.748;12.732;2022-09-09T09:35:19;9.13;;;2.95;;
36241;SDS011;22283;42.748;12.732;2022-09-09T09:40:21;15.40;;;2.70;;
36241;SDS011;22283;42.748;12.732;2022-09-09T09:45:32;10.07;;;2.72;;
36241;SDS011;22283;42.748;12.732;2022-09-09T09:50:59;12.57;;;3.85;;
36241;SDS011;22283;42.748;12.732;2022-09-09T09:56:02;14.65;;;3.13;;
36241;SDS011;22283;42.748;12.732;2022-09-09T10:01:18;13.13;;;3.95;;
36241;SDS011;22283;42.748;12.732;2022-09-09T10:06:35;19.60;;;3.95;;
36241;SDS011;22283;42.748;12.732;2022-09-09T10:11:44;23.05;;;3.42;;
36241;SDS011;22283;42.748;12.732;2022-09-09T10:22:18;23.55;;;3.55;;
36241;SDS011;22283;42.748;12.732;2022-09-09T10:27:41;16.63;;;3.07;;
36241;SDS011;22283;42.748;12.732;2022-09-09T10:33:04;20.67;;;3.60;;
36241;SDS011;22283;42.748;12.732;2022-09-09T10:38:10;27.90;;;4.00;;
36241;SDS011;22283;42.748;12.732;2022-09-09T10:58:46;28.10;;;4.32;;
36241;SDS011;22283;42.748;12.732;2022-09-09T11:04:03;9.52;;;2.75;;
36241;SDS011;22283;42.748;12.732;2022-09-09T11:09:16;14.32;;;2.80;;
36241;SDS011;22283;42.748;12.732;2022-09-09T11:24:29;33.78;;;3.92;;
36241;SDS011;22283;42.748;12.732;2022-09-09T11:29:45;9.88;;;2.72;;
36241;SDS011;22283;42.748;12.732;2022-09-09T11:34:51;10.90;;;2.00;;
36241;SDS011;22283;42.748;12.732;2022-09-09T12:00:34;20.00;;;3.10;;
36241;SDS011;22283;42.748;12.732;2022-09-09T12:05:42;11.30;;;2.38;;
36241;SDS011;22283;42.748;12.732;2022-09-09T12:10:53;12.10;;;2.53;;
36241;SDS011;22283;42.748;12.732;2022-09-09T12:15:58;12.32;;;3.10;;
36241;SDS011;22283;42.748;12.732;2022-09-09T12:26:29;16.95;;;3.00;;
36241;SDS011;22283;42.748;12.732;2022-09-09T12:36:58;20.30;;;4.65;;
36241;SDS011;22283;42.748;12.732;2022-09-09T12:42:04;15.02;;;3.40;;
36241;SDS011;22283;42.748;12.732;2022-09-09T12:47:05;15.55;;;3.33;;
36241;SDS011;22283;42.748;12.732;2022-09-09T12:52:13;12.30;;;2.05;;
36241;SDS011;22283;42.748;12.732;2022-09-09T12:57:21;7.47;;;1.80;;
36241;SDS011;22283;42.748;12.732;2022-09-09T13:02:26;9.93;;;1.95;;
36241;SDS011;22283;42.748;12.732;2022-09-09T13:07:28;9.63;;;1.70;;
36241;SDS011;22283;42.748;12.732;2022-09-09T13:12:29;7.65;;;2.03;;
36241;SDS011;22283;42.748;12.732;2022-09-09T13:17:29;14.77;;;1.63;;
36241;SDS011;22283;42.748;12.732;2022-09-09T13:22:35;14.00;;;2.45;;
36241;SDS011;22283;42.748;12.732;2022-09-09T13:27:38;13.65;;;2.35;;
36241;SDS011;22283;42.748;12.732;2022-09-09T13:32:40;6.95;;;1.40;;
36241;SDS011;22283;42.748;12.732;2022-09-09T13:37:40;10.73;;;2.08;;
36241;SDS011;22283;42.748;12.732;2022-09-09T13:42:41;6.70;;;1.35;;
36241;SDS011;22283;42.748;12.732;2022-09-09T13:47:42;11.75;;;2.22;;
36241;SDS011;22283;42.748;12.732;2022-09-09T13:52:43;9.38;;;2.28;;
36241;SDS011;22283;42.748;12.732;2022-09-09T13:57:50;43.45;;;3.55;;
36241;SDS011;22283;42.748;12.732;2022-09-09T14:02:52;9.02;;;2.10;;
36241;SDS011;22283;42.748;12.732;2022-09-09T14:07:55;6.60;;;1.65;;
36241;SDS011;22283;42.748;12.732;2022-09-09T14:12:56;8.65;;;2.25;;
36241;SDS011;22283;42.748;12.732;2022-09-09T14:17:56;3.60;;;1.15;;
36241;SDS011;22283;42.748;12.732;2022-09-09T14:22:59;10.25;;;1.40;;
36241;SDS011;22283;42.748;12.732;2022-09-09T14:27:59;8.18;;;1.70;;
36241;SDS011;22283;42.748;12.732;2022-09-09T14:33:00;10.30;;;1.70;;
36241;SDS011;22283;42.748;12.732;2022-09-09T14:38:01;13.23;;;2.95;;
36241;SDS011;22283;42.748;12.732;2022-09-09T14:43:04;13.15;;;1.65;;
36241;SDS011;22283;42.748;12.732;2022-09-09T14:48:05;9.57;;;1.63;;
36241;SDS011;22283;42.748;12.732;2022-09-09T14:53:06;7.03;;;1.40;;
36241;SDS011;22283;42.748;12.732;2022-09-09T14:58:08;5.00;;;1.65;;
36241;SDS011;22283;42.748;12.732;2022-09-09T15:03:09;8.07;;;1.50;;
36241;SDS011;22283;42.748;12.732;2022-09-09T15:08:10;11.38;;;1.85;;
36241;SDS011;22283;42.748;12.732;2022-09-09T15:13:11;31.17;;;2.47;;
36241;SDS011;22283;42.748;12.732;2022-09-09T15:18:12;14.23;;;1.90;;
36241;SDS011;22283;42.748;12.732;2022-09-09T15:23:14;7.18;;;1.45;;
36241;SDS011;22283;42.748;12.732;2022-09-09T15:28:18;4.78;;;1.45;;
36241;SDS011;22283;42.748;12.732;2022-09-09T15:33:19;6.05;;;1.70;;
36241;SDS011;22283;42.748;12.732;2022-09-09T15:38:22;17.48;;;2.08;;
36241;SDS011;22283;42.748;12.732;2022-09-09T15:43:23;6.97;;;1.45;;
36241;SDS011;22283;42.748;12.732;2022-09-09T15:48:29;5.32;;;1.20;;
36241;SDS011;22283;42.748;12.732;2022-09-09T15:53:32;9.50;;;1.73;;
36241;SDS011;22283;42.748;12.732;2022-09-09T15:58:33;16.48;;;2.40;;
36241;SDS011;22283;42.748;12.732;2022-09-09T16:03:36;8.93;;;1.60;;
36241;SDS011;22283;42.748;12.732;2022-09-09T16:08:39;17.10;;;2.13;;
36241;SDS011;22283;42.748;12.732;2022-09-09T16:13:43;6.07;;;1.70;;
36241;SDS011;22283;42.748;12.732;2022-09-09T16:18:46;8.93;;;1.42;;
36241;SDS011;22283;42.748;12.732;2022-09-09T16:23:48;5.80;;;1.92;;
36241;SDS011;22283;42.748;12.732;2022-09-09T16:28:50;5.07;;;1.70;;
36241;SDS011;22283;42.748;12.732;2022-09-09T16:33:51;8.00;;;2.35;;
36241;SDS011;22283;42.748;12.732;2022-09-09T16:38:53;31.98;;;3.22;;
36241;SDS011;22283;42.748;12.732;2022-09-09T16:44:06;15.80;;;2.30;;
36241;SDS011;22283;42.748;12.732;2022-09-09T16:49:09;4.15;;;1.38;;
36241;SDS011;22283;42.748;12.732;2022-09-09T16:54:12;12.18;;;1.75;;
36241;SDS011;22283;42.748;12.732;2022-09-09T16:59:14;6.88;;;1.67;;
36241;SDS011;22283;42.748;12.732;2022-09-09T17:04:21;16.13;;;2.15;;
36241;SDS011;22283;42.748;12.732;2022-09-09T17:09:24;6.18;;;1.52;;
36241;SDS011;22283;42.748;12.732;2022-09-09T17:14:29;11.18;;;2.22;;
36241;SDS011;22283;42.748;12.732;2022-09-09T17:19:31;16.20;;;2.25;;
36241;SDS011;22283;42.748;12.732;2022-09-09T17:24:31;4.75;;;1.60;;
36241;SDS011;22283;42.748;12.732;2022-09-09T17:29:34;8.90;;;1.77;;
36241;SDS011;22283;42.748;12.732;2022-09-09T17:34:36;12.48;;;3.47;;
36241;SDS011;22283;42.748;12.732;2022-09-09T17:39:38;8.68;;;1.73;;
36241;SDS011;22283;42.748;12.732;2022-09-09T17:44:38;8.45;;;2.20;;
36241;SDS011;22283;42.748;12.732;2022-09-09T17:49:40;8.80;;;1.83;;
36241;SDS011;22283;42.748;12.732;2022-09-09T17:54:40;8.70;;;1.85;;
36241;SDS011;22283;42.748;12.732;2022-09-09T17:59:41;7.07;;;2.17;;
36241;SDS011;22283;42.748;12.732;2022-09-09T18:04:42;9.30;;;1.80;;
36241;SDS011;22283;42.748;12.732;2022-09-09T18:09:42;13.57;;;2.35;;
36241;SDS011;22283;42.748;12.732;2022-09-09T18:14:43;8.40;;;2.08;;
36241;SDS011;22283;42.748;12.732;2022-09-09T18:24:45;8.93;;;2.15;;
36241;SDS011;22283;42.748;12.732;2022-09-09T18:29:47;33.60;;;3.45;;
36241;SDS011;22283;42.748;12.732;2022-09-09T18:39:50;16.30;;;2.60;;
36241;SDS011;22283;42.748;12.732;2022-09-09T18:44:52;11.13;;;2.00;;
36241;SDS011;22283;42.748;12.732;2022-09-09T18:49:52;4.90;;;1.65;;
36241;SDS011;22283;42.748;12.732;2022-09-09T18:54:53;8.77;;;1.90;;
36241;SDS011;22283;42.748;12.732;2022-09-09T19:04:54;10.10;;;4.78;;
36241;SDS011;22283;42.748;12.732;2022-09-09T19:14:56;5.93;;;2.17;;
36241;SDS011;22283;42.748;12.732;2022-09-09T19:19:56;10.00;;;2.35;;
36241;SDS011;22283;42.748;12.732;2022-09-09T19:30:02;10.35;;;2.00;;
36241;SDS011;22283;42.748;12.732;2022-09-09T19:35:03;11.60;;;3.22;;
36241;SDS011;22283;42.748;12.732;2022-09-09T19:40:05;17.33;;;6.45;;
36241;SDS011;22283;42.748;12.732;2022-09-09T19:45:07;10.45;;;3.50;;
36241;SDS011;22283;42.748;12.732;2022-09-09T19:50:09;5.80;;;1.98;;
36241;SDS011;22283;42.748;12.732;2022-09-09T20:00:11;6.95;;;1.50;;
36241;SDS011;22283;42.748;12.732;2022-09-09T20:05:12;9.60;;;1.55;;
36241;SDS011;22283;42.748;12.732;2022-09-09T20:15:13;10.38;;;1.63;;
36241;SDS011;22283;42.748;12.732;2022-09-09T20:25:14;14.82;;;2.75;;
36241;SDS011;22283;42.748;12.732;2022-09-09T20:35:16;8.63;;;3.03;;
36241;SDS011;22283;42.748;12.732;2022-09-09T20:40:17;12.82;;;2.47;;
36241;SDS011;22283;42.748;12.732;2022-09-09T20:45:19;12.13;;;2.65;;
36241;SDS011;22283;42.748;12.732;2022-09-09T20:50:20;31.90;;;4.70;;
36241;SDS011;22283;42.748;12.732;2022-09-09T20:55:21;20.60;;;2.92;;
36241;SDS011;22283;42.748;12.732;2022-09-09T21:00:21;12.07;;;3.10;;
36241;SDS011;22283;42.748;12.732;2022-09-09T21:15:26;14.23;;;2.70;;
36241;SDS011;22283;42.748;12.732;2022-09-09T21:20:27;9.00;;;1.88;;
36241;SDS011;22283;42.748;12.732;2022-09-09T21:25:27;13.45;;;2.17;;
36241;SDS011;22283;42.748;12.732;2022-09-09T21:30:28;8.05;;;1.85;;
36241;SDS011;22283;42.748;12.732;2022-09-09T21:35:29;14.48;;;3.53;;
36241;SDS011;22283;42.748;12.732;2022-09-09T21:40:37;18.52;;;3.15;;
36241;SDS011;22283;42.748;12.732;2022-09-09T21:45:39;14.52;;;2.58;;
36241;SDS011;22283;42.748;12.732;2022-09-09T21:50:41;18.83;;;2.30;;
36241;SDS011;22283;42.748;12.732;2022-09-09T21:55:43;11.02;;;2.03;;
36241;SDS011;22283;42.748;12.732;2022-09-09T22:00:45;13.43;;;2.95;;
36241;SDS011;22283;42.748;12.732;2022-09-09T22:05:47;11.30;;;3.30;;
36241;SDS011;22283;42.748;12.732;2022-09-09T22:10:47;9.45;;;2.30;;
36241;SDS011;22283;42.748;12.732;2022-09-09T22:15:48;18.02;;;2.88;;
36241;SDS011;22283;42.748;12.732;2022-09-09T22:20:50;20.70;;;2.88;;
36241;SDS011;22283;42.748;12.732;2022-09-09T22:25:51;4.60;;;1.80;;
36241;SDS011;22283;42.748;12.732;2022-09-09T22:30:54;6.22;;;1.65;;
36241;SDS011;22283;42.748;12.732;2022-09-09T22:35:55;10.60;;;1.90;;
36241;SDS011;22283;42.748;12.732;2022-09-09T22:40:56;6.55;;;2.03;;
36241;SDS011;22283;42.748;12.732;2022-09-09T22:45:58;7.97;;;1.83;;
36241;SDS011;22283;42.748;12.732;2022-09-09T22:50:59;9.02;;;1.88;;
36241;SDS011;22283;42.748;12.732;2022-09-09T22:56:05;10.02;;;2.67;;
36241;SDS011;22283;42.748;12.732;2022-09-09T23:01:16;10.02;;;2.30;;
36241;SDS011;22283;42.748;12.732;2022-09-09T23:06:19;8.73;;;2.40;;
36241;SDS011;22283;42.748;12.732;2022-09-09T23:11:23;11.35;;;2.10;;
36241;SDS011;22283;42.748;12.732;2022-09-09T23:16:29;24.33;;;2.88;;
36241;SDS011;22283;42.748;12.732;2022-09-09T23:21:33;9.95;;;2.45;;
36241;SDS011;22283;42.748;12.732;2022-09-09T23:26:33;7.18;;;2.10;;
36241;SDS011;22283;42.748;12.732;2022-09-09T23:31:34;18.10;;;2.65;;
36241;SDS011;22283;42.748;12.732;2022-09-09T23:36:38;15.38;;;2.92;;
36241;SDS011;22283;42.748;12.732;2022-09-09T23:41:40;9.57;;;2.05;;
36241;SDS011;22283;42.748;12.732;2022-09-09T23:46:41;10.15;;;1.80;;
36241;SDS011;22283;42.748;12.732;2022-09-09T23:51:42;6.53;;;1.42;;
36241;SDS011;22283;42.748;12.732;2022-09-09T23:56:43;7.47;;;2.55;;
